Time;durP1;ratioP1;P1;durP2;ratioP2;P2;SDS_P1;SDS_P2;PMS_P1;PMS_P2;Temp;Humidity;BMP_temperature;BMP_pressure;BME280_temperature;BME280_humidity;BME280_pressure;Samples;Min_cycle;Max_cycle;Signal;HPM_P1;HPM_P2
2023/11/18 00:00:17;;;;;;;16.50;12.10;;;;;;;2.73;85.60;99938.68;109114;1254;59595;-78
2023/11/18 00:02:46;;;;;;;16.60;12.90;;;;;;;2.82;85.65;99935.97;109220;1254;58778;-78
2023/11/18 00:05:13;;;;;;;18.50;12.50;;;;;;;2.80;85.74;99936.09;109145;1254;73020;-79
2023/11/18 00:07:41;;;;;;;18.10;13.00;;;;;;;2.75;85.82;99930.86;109205;1254;69331;-79
2023/11/18 00:10:09;;;;;;;17.00;12.50;;;;;;;2.71;85.93;99938.45;109299;1254;71401;-80
2023/11/18 00:12:37;;;;;;;16.60;11.90;;;;;;;2.66;85.92;99936.80;109190;1255;59619;-79
2023/11/18 00:15:05;;;;;;;16.70;11.30;;;;;;;2.71;85.59;99940.05;109205;1254;60052;-79
2023/11/18 00:17:33;;;;;;;22.00;11.90;;;;;;;2.78;85.40;99939.02;109215;1255;72594;-77
2023/11/18 00:20:02;;;;;;;17.40;13.00;;;;;;;2.76;85.51;99945.52;109137;1254;69072;-78
2023/11/18 00:22:30;;;;;;;16.80;12.80;;;;;;;2.70;85.65;99943.79;109024;1254;71129;-81
2023/11/18 00:24:58;;;;;;;18.10;13.10;;;;;;;2.64;85.70;99947.20;109074;1254;58275;-79
2023/11/18 00:27:25;;;;;;;17.00;12.50;;;;;;;2.59;85.76;99946.39;109153;1254;59329;-81
2023/11/18 00:29:53;;;;;;;14.60;11.90;;;;;;;2.65;85.49;99950.14;109017;1254;72448;-79
2023/11/18 00:32:20;;;;;;;16.40;12.30;;;;;;;2.73;85.33;99953.70;109014;1254;69081;-78
2023/11/18 00:34:48;;;;;;;15.60;11.60;;;;;;;2.72;85.39;99954.17;109155;1254;71640;-78
2023/11/18 00:37:15;;;;;;;16.90;12.00;;;;;;;2.68;85.51;99957.05;109022;1255;58236;-79
2023/11/18 00:39:43;;;;;;;16.50;13.20;;;;;;;2.65;85.56;99955.58;109158;1254;59240;-79
2023/11/18 00:42:11;;;;;;;18.50;12.80;;;;;;;2.56;85.28;99950.77;109248;1254;72521;-84
2023/11/18 00:44:38;;;;;;;15.70;11.90;;;;;;;2.60;85.21;99947.54;109146;1255;68777;-84
2023/11/18 00:47:06;;;;;;;15.00;12.00;;;;;;;2.65;85.16;99944.41;109082;1256;71224;-85
2023/11/18 00:49:33;;;;;;;17.70;13.10;;;;;;;2.64;85.41;99942.01;109162;1254;58970;-81
2023/11/18 00:52:01;;;;;;;16.90;11.70;;;;;;;2.60;85.45;99940.84;109196;1254;58852;-78
2023/11/18 00:54:29;;;;;;;18.00;12.50;;;;;;;2.59;85.62;99941.67;109068;1254;72636;-77
2023/11/18 00:56:56;;;;;;;17.50;12.90;;;;;;;2.56;85.55;99937.52;109149;1254;71597;-78
2023/11/18 00:59:24;;;;;;;15.70;12.60;;;;;;;2.64;85.56;99935.16;109382;1254;71468;-77
2023/11/18 01:01:51;;;;;;;15.50;12.20;;;;;;;2.71;85.06;99935.52;109235;1254;59178;-78
2023/11/18 01:04:20;;;;;;;18.10;12.60;;;;;;;2.71;85.18;99934.79;109215;1254;58781;-78
2023/11/18 01:06:48;;;;;;;16.80;12.50;;;;;;;2.69;85.63;99936.33;109086;1254;72585;-78
2023/11/18 01:09:16;;;;;;;17.20;12.90;;;;;;;2.64;85.46;99934.48;109068;1254;69328;-78
2023/11/18 01:11:43;;;;;;;16.20;11.90;;;;;;;2.57;85.41;99935.33;109253;1255;71947;-76
2023/11/18 01:14:31;;;;;;;16.10;11.50;;;;;;;2.59;85.12;99930.60;109039;1254;59644;-78
2023/11/18 01:16:59;;;;;;;16.30;11.80;;;;;;;2.67;84.97;99931.92;109218;1255;58787;-76
2023/11/18 01:21:36;;;;;;;16.20;12.90;;;;;;;2.63;85.40;99929.60;105078;1294;600103;-80
2023/11/18 01:24:04;;;;;;;18.40;12.80;;;;;;;2.56;85.27;99934.29;106300;1266;59155;-79
2023/11/18 01:26:33;;;;;;;18.60;13.50;;;;;;;2.52;85.62;99930.63;108625;1266;58862;-76
2023/11/18 01:29:00;;;;;;;18.80;13.20;;;;;;;2.49;85.45;99933.25;108602;1266;70660;-82
2023/11/18 01:31:28;;;;;;;15.20;11.20;;;;;;;2.53;85.01;99930.34;108645;1266;68734;-82
2023/11/18 01:34:07;;;;;;;13.90;11.10;;;;;;;2.59;84.96;99932.38;108436;1265;249974;-79
2023/11/18 01:36:35;;;;;;;15.80;12.40;;;;;;;2.58;85.24;99932.46;108694;1265;58774;-84
2023/11/18 01:39:02;;;;;;;15.40;11.70;;;;;;;2.54;85.40;99935.67;109257;1256;59217;-83
2023/11/18 01:41:32;;;;;;;17.50;13.10;;;;;;;2.50;85.35;99933.89;109247;1255;70797;-84
2023/11/18 01:44:00;;;;;;;21.40;13.60;;;;;;;2.45;85.58;99931.47;109141;1256;71032;-83
2023/11/18 01:46:29;;;;;;;16.60;12.80;;;;;;;2.44;85.82;99931.39;109102;1255;71208;-84
2023/11/18 01:48:58;;;;;;;18.10;12.60;;;;;;;2.54;85.58;99927.66;109265;1256;59592;-82
2023/11/18 01:51:26;;;;;;;17.00;12.70;;;;;;;2.62;85.30;99931.15;109000;1255;58732;-83
2023/11/18 01:53:53;;;;;;;16.40;13.00;;;;;;;2.58;85.28;99930.31;108965;1255;72014;-83
2023/11/18 01:56:25;;;;;;;16.80;12.90;;;;;;;2.55;85.60;99930.57;109141;1255;68792;-83
2023/11/18 01:58:53;;;;;;;14.70;11.20;;;;;;;2.52;85.51;99936.17;109030;1256;71572;-83
2023/11/18 02:01:21;;;;;;;20.50;12.90;;;;;;;2.49;85.84;99940.27;109019;1255;59596;-85
2023/11/18 02:03:49;;;;;;;17.80;12.60;;;;;;;2.56;85.31;99939.73;109189;1256;57772;-85
2023/11/18 02:06:17;;;;;;;15.70;12.40;;;;;;;2.59;85.12;99938.48;109205;1255;74114;-84
2023/11/18 02:08:44;;;;;;;18.50;11.70;;;;;;;2.59;85.34;99941.96;109044;1262;69079;-84
2023/11/18 02:11:41;;;;;;;18.40;13.60;;;;;;;2.56;85.65;99947.48;109039;1254;71179;-84
2023/11/18 02:14:13;;;;;;;17.20;13.00;;;;;;;2.52;85.91;99941.23;109141;1256;57977;-82
2023/11/18 02:16:41;;;;;;;18.50;13.10;;;;;;;2.52;85.59;99942.84;109039;1255;58767;-82
2023/11/18 02:19:24;;;;;;;15.00;11.90;;;;;;;2.63;85.65;99941.05;109152;1255;71786;-84
2023/11/18 02:21:56;;;;;;;16.90;13.30;;;;;;;2.71;85.53;99942.84;108823;1260;69595;-79
2023/11/18 02:24:30;;;;;;;15.90;12.00;;;;;;;2.65;85.47;99945.23;108855;1256;73787;-84
2023/11/18 02:26:58;;;;;;;18.40;13.90;;;;;;;2.58;85.58;99945.05;108962;1256;57977;-83
2023/11/18 02:29:28;;;;;;;17.30;13.50;;;;;;;2.54;85.89;99942.33;108754;1255;58764;-83
2023/11/18 02:32:01;;;;;;;17.10;12.80;;;;;;;2.52;86.33;99942.98;107082;1254;74240;-83
2023/11/18 02:34:31;;;;;;;18.50;13.20;;;;;;;2.61;85.85;99949.36;106236;1262;68756;-79
2023/11/18 02:37:00;;;;;;;20.30;12.20;;;;;;;2.66;85.79;99945.88;105943;1256;73751;-80
2023/11/18 02:39:42;;;;;;;18.00;13.30;;;;;;;2.59;85.71;99946.35;105973;1256;60056;-77
2023/11/18 02:42:10;;;;;;;17.70;13.40;;;;;;;2.49;86.14;99951.59;105817;1260;60052;-79
2023/11/18 02:44:38;;;;;;;16.80;13.10;;;;;;;2.40;86.81;99951.90;105811;1262;71130;-79
2023/11/18 02:47:06;;;;;;;18.60;12.30;;;;;;;2.31;87.05;99951.37;105985;1260;70977;-84
2023/11/18 02:49:36;;;;;;;17.40;13.30;;;;;;;2.24;87.12;99952.16;105761;1256;72714;-80
2023/11/18 02:52:05;;;;;;;16.10;12.10;;;;;;;2.30;87.13;99952.13;106396;1259;59589;-78
2023/11/18 02:54:33;;;;;;;15.80;12.00;;;;;;;2.38;87.03;99949.78;106171;1257;62126;-77
2023/11/18 02:57:00;;;;;;;19.70;13.90;;;;;;;2.35;87.51;99945.42;105779;1261;73116;-83
2023/11/18 02:59:30;;;;;;;16.10;13.60;;;;;;;2.30;87.96;99949.67;106349;1257;70489;-81
2023/11/18 03:01:58;;;;;;;19.50;13.70;;;;;;;2.27;88.17;99946.60;105919;1262;71391;-80
2023/11/18 03:05:26;;;;;;;19.90;13.40;;;;;;;2.29;88.31;99945.59;102781;1293;600399;-73
2023/11/18 03:07:57;;;;;;;18.50;13.50;;;;;;;2.38;88.06;99948.59;105483;1272;59612;-77
2023/11/18 03:10:26;;;;;;;18.90;13.40;;;;;;;2.46;88.18;99945.56;105224;1272;59984;-75
2023/11/18 03:12:53;;;;;;;20.80;14.80;;;;;;;2.45;88.42;99944.59;105076;1272;70037;-77
2023/11/18 03:15:21;;;;;;;19.50;14.70;;;;;;;2.42;88.69;99945.80;105512;1257;68720;-79
2023/11/18 03:17:50;;;;;;;22.20;15.90;;;;;;;2.39;88.53;99947.60;105573;1264;71401;-77
2023/11/18 03:20:22;;;;;;;22.90;15.00;;;;;;;2.36;88.45;99954.27;105706;1257;60950;-76
2023/11/18 03:22:51;;;;;;;20.00;14.20;;;;;;;2.45;88.06;99955.05;106170;1260;60023;-77
2023/11/18 03:25:21;;;;;;;16.10;12.60;;;;;;;2.51;88.10;99954.08;105833;1258;71214;-76
2023/11/18 03:27:49;;;;;;;19.10;13.80;;;;;;;2.48;87.96;99953.45;105735;1263;68825;-75
2023/11/18 03:30:17;;;;;;;19.00;14.00;;;;;;;2.42;88.23;99955.24;105643;1260;72742;-76
2023/11/18 03:32:45;;;;;;;22.30;15.60;;;;;;;2.39;88.46;99954.30;105880;1260;59740;-75
2023/11/18 03:35:13;;;;;;;19.80;14.30;;;;;;;2.36;88.39;99956.21;105503;1261;60096;-75
2023/11/18 03:37:41;;;;;;;16.30;13.00;;;;;;;2.44;88.44;99954.80;105664;1261;73016;-74
2023/11/18 03:40:11;;;;;;;18.60;14.50;;;;;;;2.49;88.07;99952.30;105563;1262;68955;-74
2023/11/18 03:42:39;;;;;;;19.00;14.70;;;;;;;2.47;88.01;99947.71;105609;1257;71491;-75
2023/11/18 03:45:11;;;;;;;18.30;14.60;;;;;;;2.43;87.88;99948.23;105723;1260;59730;-75
2023/11/18 03:47:38;;;;;;;19.20;13.80;;;;;;;2.37;88.04;99945.52;105597;1257;59731;-77
2023/11/18 03:50:12;;;;;;;20.30;14.40;;;;;;;2.31;88.06;99948.05;105706;1258;73209;-76
2023/11/18 03:52:41;;;;;;;19.70;13.00;;;;;;;2.35;87.78;99946.53;106371;1256;70106;-78
2023/11/18 03:55:09;;;;;;;17.60;13.40;;;;;;;2.41;87.88;99949.75;106176;1260;71395;-79
2023/11/18 03:57:36;;;;;;;17.60;13.00;;;;;;;2.36;87.73;99951.37;107566;1260;59353;-80
2023/11/18 04:00:06;;;;;;;18.80;13.80;;;;;;;2.28;87.86;99953.15;107773;1260;58745;-82
2023/11/18 04:02:42;;;;;;;19.90;14.60;;;;;;;2.22;88.03;99952.02;107828;1263;72179;-79
2023/11/18 04:05:10;;;;;;;18.50;13.30;;;;;;;2.17;88.12;99952.69;107986;1260;68891;-81
2023/11/18 04:07:41;;;;;;;15.40;12.00;;;;;;;2.23;87.94;99951.94;107376;1261;71302;-80
2023/11/18 04:10:10;;;;;;;17.20;12.70;;;;;;;2.29;87.85;99953.55;107409;1260;59304;-81
2023/11/18 04:12:38;;;;;;;17.20;13.50;;;;;;;2.27;87.92;99958.27;106640;1257;60023;-82
2023/11/18 04:15:07;;;;;;;17.30;14.60;;;;;;;2.22;88.27;99959.70;106242;1264;71680;-78
2023/11/18 04:17:35;;;;;;;17.40;12.50;;;;;;;2.16;88.15;99959.59;105948;1263;70923;-80
2023/11/18 04:20:05;;;;;;;18.10;13.00;;;;;;;2.14;88.24;99965.44;105955;1263;71489;-80
2023/11/18 04:22:32;;;;;;;18.60;13.40;;;;;;;2.23;88.04;99967.16;105716;1262;59800;-82
2023/11/18 04:25:00;;;;;;;19.20;14.20;;;;;;;2.23;87.98;99969.55;106051;1258;59499;-82
2023/11/18 04:27:27;;;;;;;16.90;13.40;;;;;;;2.19;88.47;99973.52;106004;1260;73001;-82
2023/11/18 04:29:55;;;;;;;18.70;13.60;;;;;;;2.17;88.77;99974.53;106102;1257;69978;-81
2023/11/18 04:32:22;;;;;;;18.10;12.80;;;;;;;2.14;88.77;99976.45;106069;1257;71636;-79
2023/11/18 04:34:51;;;;;;;15.90;12.90;;;;;;;2.24;88.80;99978.44;106188;1258;59688;-78
2023/11/18 04:37:18;;;;;;;16.00;12.80;;;;;;;2.32;88.41;99976.64;106951;1263;60080;-81
2023/11/18 04:39:46;;;;;;;17.80;13.60;;;;;;;2.30;88.46;99983.23;108075;1257;74023;-80
2023/11/18 04:42:15;;;;;;;18.00;13.10;;;;;;;2.26;88.67;99982.10;106884;1261;69587;-81
2023/11/18 04:44:43;;;;;;;17.40;14.00;;;;;;;2.24;88.82;99985.61;105862;1261;72769;-81
2023/11/18 04:47:11;;;;;;;16.80;12.60;;;;;;;2.20;88.63;99984.98;105862;1257;59778;-84
2023/11/18 04:49:39;;;;;;;16.50;12.20;;;;;;;2.24;88.13;99985.26;106055;1257;59807;-81
2023/11/18 04:52:06;;;;;;;16.50;12.30;;;;;;;2.28;87.97;99984.39;105869;1260;71823;-83
2023/11/18 04:54:34;;;;;;;18.60;13.90;;;;;;;2.24;88.02;99987.70;105782;1257;70032;-82
2023/11/18 04:57:02;;;;;;;18.70;13.50;;;;;;;2.15;88.35;99989.84;106050;1257;73586;-79
2023/11/18 04:59:30;;;;;;;20.30;13.70;;;;;;;2.09;88.40;99991.49;106802;1254;59672;-82
2023/11/18 05:01:58;;;;;;;22.80;15.00;;;;;;;2.05;88.53;99991.61;106595;1254;60049;-80
2023/11/18 05:04:26;;;;;;;14.70;12.30;;;;;;;2.12;88.32;99993.05;106442;1254;71812;-80
2023/11/18 05:06:54;;;;;;;16.30;11.90;;;;;;;2.17;88.03;99995.70;106784;1254;68893;-81
2023/11/18 05:09:21;;;;;;;16.70;12.80;;;;;;;2.10;87.83;100000.02;108228;1257;71385;-84
2023/11/18 05:11:49;;;;;;;16.80;13.10;;;;;;;2.03;88.19;100001.59;108697;1258;57974;-85
2023/11/18 05:14:16;;;;;;;17.90;13.00;;;;;;;1.96;88.13;100009.73;106980;1254;59652;-85
2023/11/18 05:16:44;;;;;;;15.80;11.80;;;;;;;1.90;88.06;100010.14;106206;1254;73588;-83
2023/11/18 05:19:12;;;;;;;17.30;12.20;;;;;;;1.94;87.60;100015.45;106016;1259;69595;-83
2023/11/18 05:21:39;;;;;;;16.60;12.80;;;;;;;1.96;87.21;100020.73;106532;1254;72744;-83
2023/11/18 05:24:07;;;;;;;16.90;13.00;;;;;;;1.87;87.14;100021.37;105855;1256;59755;-83
2023/11/18 05:26:35;;;;;;;16.30;12.80;;;;;;;1.77;87.43;100024.13;106095;1257;59546;-84
2023/11/18 05:29:03;;;;;;;16.80;13.10;;;;;;;1.69;87.39;100026.23;106411;1259;71819;-81
2023/11/18 05:31:31;;;;;;;17.50;12.30;;;;;;;1.64;87.40;100023.45;107378;1254;70353;-80
2023/11/18 05:33:59;;;;;;;16.70;13.50;;;;;;;1.68;87.03;100029.23;107455;1258;71880;-82
2023/11/18 05:36:27;;;;;;;14.20;12.00;;;;;;;1.73;86.91;100031.38;106258;1254;59506;-81
2023/11/18 05:38:55;;;;;;;17.30;13.00;;;;;;;1.69;87.02;100033.42;105878;1256;59557;-83
2023/11/18 05:41:31;;;;;;;18.90;14.70;;;;;;;1.62;87.42;100034.09;105823;1260;72716;-83
2023/11/18 05:43:59;;;;;;;20.30;14.30;;;;;;;1.56;87.49;100038.80;106526;1254;68813;-84
2023/11/18 05:46:29;;;;;;;19.30;14.10;;;;;;;1.52;87.58;100039.62;105647;1257;71427;-81
2023/11/18 05:49:01;;;;;;;16.80;13.20;;;;;;;1.57;87.25;100042.73;106022;1254;60873;-82
2023/11/18 05:51:29;;;;;;;16.30;12.70;;;;;;;1.64;87.04;100044.40;105718;1263;60627;-80
2023/11/18 05:53:57;;;;;;;17.50;13.50;;;;;;;1.60;87.25;100048.64;105975;1259;72885;-81
2023/11/18 05:56:26;;;;;;;18.40;12.70;;;;;;;1.55;87.30;100053.20;106007;1254;68594;-81
2023/11/18 05:58:53;;;;;;;19.10;13.20;;;;;;;1.49;87.36;100056.05;106135;1257;71438;-81
2023/11/18 06:01:21;;;;;;;17.90;13.70;;;;;;;1.45;87.33;100068.36;105845;1253;59653;-77
2023/11/18 06:03:49;;;;;;;15.10;12.20;;;;;;;1.51;87.17;100071.27;105595;1260;62241;-77
2023/11/18 06:06:18;;;;;;;16.90;12.10;;;;;;;1.53;86.89;100077.73;106301;1254;72623;-77
2023/11/18 06:08:50;;;;;;;16.40;12.40;;;;;;;1.48;87.04;100083.01;106399;1260;68840;-77
2023/11/18 06:11:19;;;;;;;16.50;13.10;;;;;;;1.42;87.25;100086.20;106100;1254;72453;-78
2023/11/18 06:13:51;;;;;;;15.90;12.30;;;;;;;1.37;87.36;100087.17;107521;1259;60425;-78
2023/11/18 06:16:20;;;;;;;16.30;12.30;;;;;;;1.46;87.36;100088.05;105867;1254;59835;-76
2023/11/18 06:18:53;;;;;;;16.70;12.40;;;;;;;1.54;87.07;100085.53;106103;1254;73197;-79
2023/11/18 06:21:24;;;;;;;15.60;12.40;;;;;;;1.52;87.17;100083.63;106965;1259;70480;-82
2023/11/18 06:23:54;;;;;;;16.00;12.80;;;;;;;1.46;87.36;100083.31;106041;1256;72667;-81
2023/11/18 06:26:26;;;;;;;14.80;12.00;;;;;;;1.41;87.31;100089.41;105859;1257;59528;-82
2023/11/18 06:28:54;;;;;;;17.30;12.90;;;;;;;1.36;87.19;100092.27;105688;1260;60265;-79
2023/11/18 06:31:23;;;;;;;17.50;12.50;;;;;;;1.44;86.80;100096.15;105816;1254;71851;-82
2023/11/18 06:33:52;;;;;;;18.30;13.80;;;;;;;1.46;86.41;100101.08;105842;1256;68771;-81
2023/11/18 06:36:26;;;;;;;16.30;12.20;;;;;;;1.37;86.23;100101.70;106002;1260;71265;-81
2023/11/18 06:38:53;;;;;;;16.50;12.40;;;;;;;1.27;86.50;100103.36;105835;1257;59727;-79
2023/11/18 06:41:33;;;;;;;17.10;13.30;;;;;;;1.18;86.37;100102.58;106021;1254;59842;-79
2023/11/18 06:44:09;;;;;;;19.40;13.80;;;;;;;1.22;86.16;100108.27;105831;1257;71882;-79
2023/11/18 06:46:39;;;;;;;16.40;13.30;;;;;;;1.27;86.04;100111.02;105793;1254;68714;-80
2023/11/18 06:49:15;;;;;;;16.50;12.20;;;;;;;1.23;85.99;100110.44;106202;1254;72842;-81
2023/11/18 06:51:43;;;;;;;16.30;12.20;;;;;;;1.17;86.27;100111.14;105801;1257;61110;-81
2023/11/18 06:54:13;;;;;;;17.30;12.90;;;;;;;1.13;86.38;100116.13;105861;1254;60245;-83
2023/11/18 06:56:44;;;;;;;16.90;12.30;;;;;;;1.10;86.67;100119.86;105934;1254;71287;-81
2023/11/18 06:59:13;;;;;;;17.20;12.50;;;;;;;1.16;86.58;100122.08;105881;1260;68896;-83
2023/11/18 07:01:44;;;;;;;15.90;12.30;;;;;;;1.24;86.46;100120.65;105946;1256;71375;-82
2023/11/18 07:04:14;;;;;;;16.30;12.20;;;;;;;1.24;86.48;100121.73;105767;1261;59717;-84
2023/11/18 07:06:43;;;;;;;18.20;13.30;;;;;;;1.19;86.80;100116.80;105848;1254;59567;-82
2023/11/18 07:09:18;;;;;;;16.20;13.80;;;;;;;1.18;86.90;100118.29;106031;1257;71790;-85
2023/11/18 07:11:47;;;;;;;18.70;12.80;;;;;;;1.18;87.04;100117.23;106320;1255;70386;-85
2023/11/18 07:14:15;;;;;;;16.20;12.40;;;;;;;1.30;86.95;100118.56;106101;1257;71445;-84
2023/11/18 07:16:44;;;;;;;17.40;13.70;;;;;;;1.44;86.71;100118.52;106467;1257;60466;-81
2023/11/18 07:19:19;;;;;;;16.90;12.80;;;;;;;1.48;86.86;100119.63;107745;1254;59244;-83
2023/11/18 07:21:49;;;;;;;15.40;13.20;;;;;;;1.48;87.01;100116.12;107013;1257;73808;-83
2023/11/18 07:24:17;;;;;;;15.60;12.10;;;;;;;1.49;86.65;100115.42;106873;1254;70040;-82
2023/11/18 07:26:45;;;;;;;16.50;12.60;;;;;;;1.49;86.36;100119.23;107286;1256;71068;-83
2023/11/18 07:29:13;;;;;;;15.00;11.30;;;;;;;1.62;86.29;100116.11;107773;1259;61810;-85
2023/11/18 07:31:40;;;;;;;12.40;10.40;;;;;;;1.76;86.13;100117.43;106749;1254;60380;-85
2023/11/18 07:34:08;;;;;;;15.60;12.60;;;;;;;1.76;85.51;100119.86;106103;1254;73814;-86
2023/11/18 07:36:36;;;;;;;16.50;13.10;;;;;;;1.75;85.50;100122.19;106402;1254;70359;-85
2023/11/18 07:39:04;;;;;;;17.30;13.50;;;;;;;1.74;85.39;100120.71;106340;1254;72466;-84
2023/11/18 07:41:31;;;;;;;19.20;13.10;;;;;;;1.75;85.48;100122.36;107072;1254;60411;-83
2023/11/18 07:44:00;;;;;;;15.90;11.80;;;;;;;1.82;85.26;100121.21;107677;1256;60330;-82
2023/11/18 07:46:31;;;;;;;14.40;11.60;;;;;;;1.98;84.84;100118.60;108955;1254;74064;-83
2023/11/18 07:49:01;;;;;;;16.80;13.10;;;;;;;2.03;84.18;100116.83;107038;1254;69004;-84
2023/11/18 07:51:29;;;;;;;16.70;12.60;;;;;;;2.01;84.28;100112.66;107354;1256;74140;-81
2023/11/18 07:53:56;;;;;;;18.60;14.50;;;;;;;1.98;84.31;100114.27;108699;1254;60255;-81
2023/11/18 07:56:24;;;;;;;15.40;12.70;;;;;;;2.01;84.33;100117.17;106680;1254;60531;-83
2023/11/18 07:58:52;;;;;;;12.80;10.80;;;;;;;2.04;84.07;100121.30;105794;1260;73025;-81
2023/11/18 08:01:21;;;;;;;15.10;12.60;;;;;;;2.16;83.70;100121.20;106010;1257;68691;-82
2023/11/18 08:03:52;;;;;;;14.60;11.90;;;;;;;2.24;83.35;100122.81;105990;1256;71292;-83
2023/11/18 08:06:20;;;;;;;14.40;11.40;;;;;;;2.22;83.36;100122.36;106079;1254;62028;-83
2023/11/18 08:08:48;;;;;;;15.90;12.80;;;;;;;2.22;83.10;100125.39;105939;1253;60392;-82
2023/11/18 08:11:17;;;;;;;17.60;12.20;;;;;;;2.20;83.17;100128.29;106068;1257;73865;-82
2023/11/18 08:13:44;;;;;;;15.40;12.70;;;;;;;2.21;83.16;100135.73;106213;1254;69040;-83
2023/11/18 08:16:14;;;;;;;16.10;12.50;;;;;;;2.23;83.10;100137.85;106439;1254;72637;-84
2023/11/18 08:18:42;;;;;;;14.40;12.00;;;;;;;2.36;82.41;100141.85;106580;1253;60896;-86
2023/11/18 08:21:10;;;;;;;15.80;11.50;;;;;;;2.48;81.77;100142.10;106428;1253;60563;-83
2023/11/18 08:23:37;;;;;;;13.40;11.10;;;;;;;2.50;81.80;100149.10;106306;1254;73998;-81
2023/11/18 08:26:05;;;;;;;13.40;11.20;;;;;;;2.51;81.53;100152.17;105847;1254;69299;-79
2023/11/18 08:28:33;;;;;;;14.20;11.70;;;;;;;2.49;80.94;100153.41;106006;1259;72687;-77
2023/11/18 08:31:01;;;;;;;15.00;10.50;;;;;;;2.47;80.98;100155.81;106108;1254;60338;-87
2023/11/18 08:33:30;;;;;;;11.60;9.20;;;;;;;2.47;80.56;100158.73;107417;1252;60015;-83
2023/11/18 08:35:58;;;;;;;10.50;8.90;;;;;;;2.58;80.09;100162.73;107953;1253;72782;-85
2023/11/18 08:38:26;;;;;;;13.70;10.40;;;;;;;2.72;79.82;100165.08;107470;1254;68329;-84
2023/11/18 08:40:55;;;;;;;13.10;10.80;;;;;;;2.80;79.80;100169.10;106436;1254;72779;-84
2023/11/18 08:43:23;;;;;;;12.10;9.70;;;;;;;2.87;79.66;100170.98;106498;1254;61422;-83
2023/11/18 08:45:50;;;;;;;12.10;9.70;;;;;;;2.98;79.51;100173.10;107038;1253;60262;-86
2023/11/18 08:48:18;;;;;;;13.10;10.80;;;;;;;3.12;79.62;100176.10;105946;1257;73969;-81
2023/11/18 08:50:46;;;;;;;12.90;11.00;;;;;;;3.23;78.69;100173.73;105958;1259;69626;-84
2023/11/18 08:53:17;;;;;;;13.50;10.00;;;;;;;3.32;78.59;100173.94;106047;1254;71561;-85
2023/11/18 08:55:53;;;;;;;10.50;9.00;;;;;;;3.52;77.66;100173.23;106019;1253;60508;-82
2023/11/18 08:58:22;;;;;;;11.70;9.40;;;;;;;3.67;77.36;100172.41;106504;1253;60466;-81
2023/11/18 09:00:54;;;;;;;11.80;10.10;;;;;;;3.81;77.28;100173.70;106159;1259;71629;-79
2023/11/18 09:05:58;;;;;;;12.20;10.60;;;;;;;4.38;76.57;100165.17;106465;1253;71473;-82
2023/11/18 09:08:34;;;;;;;12.60;9.80;;;;;;;4.72;75.50;100156.91;106268;1257;60482;-81
2023/11/18 09:11:06;;;;;;;11.70;9.20;;;;;;;4.94;73.87;100152.79;106653;1253;61535;-81
2023/11/18 09:13:34;;;;;;;11.70;9.80;;;;;;;4.98;72.36;100155.45;106754;1253;73870;-82
2023/11/18 09:16:08;;;;;;;11.80;9.60;;;;;;;4.89;71.29;100154.54;106693;1256;68789;-83
2023/11/18 09:18:41;;;;;;;11.50;9.30;;;;;;;4.75;70.97;100153.07;108571;1254;74152;-81
2023/11/18 09:21:19;;;;;;;12.90;8.80;;;;;;;4.68;70.83;100147.61;107139;1254;60042;-80
2023/11/18 09:23:49;;;;;;;10.50;8.40;;;;;;;4.74;70.69;100141.04;106657;1254;60568;-82
2023/11/18 09:26:17;;;;;;;10.40;9.20;;;;;;;4.74;70.53;100138.23;106942;1254;73884;-82
2023/11/18 09:28:45;;;;;;;9.80;8.50;;;;;;;4.81;71.18;100136.79;106374;1256;68762;-83
2023/11/18 09:31:14;;;;;;;10.00;8.40;;;;;;;4.94;70.20;100137.84;106151;1253;72381;-82
2023/11/18 09:33:51;;;;;;;10.60;8.60;;;;;;;5.02;70.23;100138.15;105786;1253;60599;-82
2023/11/18 09:36:22;;;;;;;9.90;8.50;;;;;;;5.06;69.68;100138.16;106440;1253;60540;-81
2023/11/18 09:38:50;;;;;;;10.20;8.40;;;;;;;5.03;69.65;100132.27;106351;1254;74814;-84
2023/11/18 09:41:18;;;;;;;9.20;7.80;;;;;;;4.95;69.26;100130.90;107036;1254;70318;-83
2023/11/18 09:43:47;;;;;;;12.90;8.50;;;;;;;4.86;69.39;100128.85;108534;1254;72355;-84
2023/11/18 09:46:18;;;;;;;10.40;8.10;;;;;;;4.78;68.93;100126.86;108735;1254;59305;-87
2023/11/18 09:48:47;;;;;;;11.50;7.70;;;;;;;4.72;69.00;100118.38;107116;1253;60812;-86
2023/11/18 09:51:23;;;;;;;8.70;7.30;;;;;;;4.68;68.90;100114.97;106247;1259;72386;-82
2023/11/18 09:53:54;;;;;;;9.50;7.40;;;;;;;4.63;68.97;100112.58;107475;1254;70741;-82
2023/11/18 09:56:43;;;;;;;11.50;9.40;;;;;;;4.60;68.85;100112.50;108596;1253;71676;-85
2023/11/18 09:59:15;;;;;;;11.60;7.60;;;;;;;4.67;69.05;100110.73;106287;1253;60459;-82
2023/11/18 10:01:44;;;;;;;8.20;6.80;;;;;;;5.04;68.85;100112.01;106152;1259;60367;-83
2023/11/18 10:04:17;;;;;;;10.60;7.40;;;;;;;5.71;69.09;100102.78;106593;1253;71605;-84
2023/11/18 10:06:47;;;;;;;9.70;8.20;;;;;;;6.60;67.98;100093.52;106430;1253;70251;-82
2023/11/18 10:09:16;;;;;;;10.20;8.00;;;;;;;7.13;65.73;100088.02;106662;1256;71427;-83
2023/11/18 10:11:46;;;;;;;12.20;8.30;;;;;;;7.21;64.43;100091.95;106579;1253;61242;-87
2023/11/18 10:14:17;;;;;;;12.60;8.30;;;;;;;7.06;63.71;100088.39;106476;1253;61438;-83
2023/11/18 10:16:46;;;;;;;9.90;8.20;;;;;;;6.84;63.03;100092.07;106643;1260;73020;-82
2023/11/18 10:19:17;;;;;;;9.40;7.30;;;;;;;6.61;63.09;100096.93;106603;1255;69076;-83
2023/11/18 10:21:48;;;;;;;8.50;6.50;;;;;;;6.48;63.05;100099.96;106456;1255;72381;-81
2023/11/18 10:24:20;;;;;;;8.60;7.30;;;;;;;6.72;62.86;100097.04;106741;1257;60438;-84
2023/11/18 10:26:57;;;;;;;9.40;7.50;;;;;;;7.16;62.99;100098.84;106871;1254;60363;-83
2023/11/18 10:29:27;;;;;;;10.10;7.60;;;;;;;7.64;61.87;100098.87;106917;1253;73857;-83
2023/11/18 10:32:19;;;;;;;8.20;6.50;;;;;;;8.05;61.36;100088.19;107028;1253;70384;-84
2023/11/18 10:34:49;;;;;;;7.30;6.50;;;;;;;8.50;59.42;100084.23;106455;1254;71642;-82
2023/11/18 10:37:17;;;;;;;9.80;7.50;;;;;;;8.56;58.77;100085.59;106160;1257;61377;-86
2023/11/18 10:39:51;;;;;;;8.20;6.60;;;;;;;8.50;58.54;100091.08;106127;1254;60389;-86
2023/11/18 10:42:19;;;;;;;6.40;5.80;;;;;;;8.59;57.40;100094.67;106379;1254;73911;-84
2023/11/18 10:45:01;;;;;;;9.40;6.00;;;;;;;8.38;57.31;100097.33;106180;1257;67973;-83
2023/11/18 10:47:32;;;;;;;7.80;6.20;;;;;;;7.97;58.18;100098.96;106824;1254;71379;-83
2023/11/18 10:50:01;;;;;;;7.20;6.00;;;;;;;7.57;58.34;100110.64;108364;1253;59193;-85
2023/11/18 10:52:31;;;;;;;7.70;6.60;;;;;;;7.19;59.01;100114.20;108721;1253;59405;-85
2023/11/18 10:55:06;;;;;;;7.00;6.10;;;;;;;6.84;59.42;100115.37;108438;1253;73075;-84
2023/11/18 10:57:35;;;;;;;8.10;6.10;;;;;;;6.46;59.82;100116.36;107299;1254;68857;-85
2023/11/18 11:00:12;;;;;;;8.40;6.30;;;;;;;6.07;60.57;100107.55;106188;1254;71088;-83
2023/11/18 11:02:41;;;;;;;9.10;6.40;;;;;;;5.66;61.27;100111.52;107112;1253;60485;-83
2023/11/18 11:05:15;;;;;;;7.30;6.40;;;;;;;5.34;61.92;100113.91;108859;1253;60404;-84
2023/11/18 11:07:49;;;;;;;10.70;7.20;;;;;;;5.08;62.76;100116.74;108889;1253;71587;-84
2023/11/18 11:10:24;;;;;;;8.20;7.00;;;;;;;5.01;63.71;100109.25;108260;1254;68670;-82
2023/11/18 11:12:53;;;;;;;7.40;6.00;;;;;;;5.14;64.35;100112.91;106320;1253;74683;-84
2023/11/18 11:15:31;;;;;;;8.70;6.40;;;;;;;5.28;63.89;100113.04;106322;1253;60398;-85
2023/11/18 11:18:27;;;;;;;7.30;6.40;;;;;;;5.22;63.69;100112.60;106184;1256;60436;-85
2023/11/18 11:21:15;;;;;;;7.00;6.10;;;;;;;5.10;63.83;100116.94;106143;1254;74045;-84
2023/11/18 11:23:55;;;;;;;7.50;6.30;;;;;;;4.89;63.74;100116.82;106466;1259;68809;-84
2023/11/18 11:26:42;;;;;;;8.10;6.20;;;;;;;4.67;64.14;100122.41;106258;1258;72894;-76
2023/11/18 11:29:32;;;;;;;7.40;6.50;;;;;;;4.48;64.49;100132.67;106549;1254;60527;-83
2023/11/18 11:32:18;;;;;;;7.80;6.60;;;;;;;4.27;64.71;100134.84;106420;1254;60540;-86